createdAt,value
2023-04-15T00:00:09.072Z,0.60
2023-04-15T00:02:37.800Z,0.40
2023-04-15T00:05:09.279Z,0.80
2023-04-15T00:07:42.229Z,0.60
2023-04-15T00:10:16.161Z,0.30
2023-04-15T00:12:52.976Z,0.47
2023-04-15T00:15:25.100Z,0.40
2023-04-15T00:18:02.680Z,0.45
2023-04-15T00:20:42.328Z,0.30
2023-04-15T00:23:10.487Z,0.50
2023-04-15T00:28:45.576Z,0.68
2023-04-15T00:31:22.529Z,0.52
2023-04-15T00:33:56.280Z,0.40
2023-04-15T00:36:32.197Z,0.73
2023-04-15T00:39:19.378Z,0.40
2023-04-15T00:42:20.047Z,0.60
2023-04-15T00:44:49.970Z,0.40
2023-04-15T00:47:23.669Z,0.52
2023-04-15T00:53:28.375Z,0.73
2023-04-15T00:59:28.732Z,0.63
2023-04-15T01:02:02.119Z,0.55
2023-04-15T01:05:02.928Z,0.40
2023-04-15T01:14:20.389Z,0.73
2023-04-15T01:17:20.384Z,0.50
2023-04-15T01:23:22.297Z,0.60
2023-04-15T01:26:30.059Z,0.40
2023-04-15T01:29:03.032Z,0.55
2023-04-15T01:31:33.741Z,0.50
2023-04-15T01:34:11.450Z,0.63
2023-04-15T01:37:32.736Z,0.40
2023-04-15T01:40:36.780Z,0.65
2023-04-15T01:45:03.642Z,0.52
2023-04-15T01:51:56.008Z,0.40
2023-04-15T02:06:25.514Z,0.40
2023-04-15T02:16:10.412Z,0.38
2023-04-15T02:26:49.496Z,0.40
2023-04-15T02:45:14.314Z,1.23
2023-04-15T02:48:17.743Z,1.10
2023-04-15T03:22:58.613Z,0.50
2023-04-15T03:25:25.894Z,0.88
2023-04-15T03:27:53.205Z,0.80
2023-04-15T03:30:20.205Z,0.93
2023-04-15T03:32:47.814Z,0.90
2023-04-15T03:35:25.605Z,1.15
2023-04-15T03:40:37.299Z,0.80
2023-04-15T03:44:05.893Z,0.88
2023-04-15T03:46:32.843Z,0.98
2023-04-15T03:49:00.645Z,0.98
2023-04-15T03:51:27.569Z,1.00
2023-04-15T03:53:56.573Z,1.08
2023-04-15T03:56:26.245Z,1.17
2023-04-15T03:58:53.172Z,1.20
2023-04-15T04:01:20.070Z,1.02
2023-04-15T04:03:47.007Z,1.50
2023-04-15T04:06:14.571Z,1.52
2023-04-15T04:08:41.809Z,1.40
2023-04-15T04:11:08.600Z,1.17
2023-04-15T04:13:35.757Z,1.15
2023-04-15T04:16:32.778Z,1.50
2023-04-15T04:19:02.625Z,1.30
2023-04-15T04:21:34.348Z,1.80
2023-04-15T04:24:01.268Z,1.38
2023-04-15T04:26:28.093Z,1.77
2023-04-15T04:28:57.693Z,1.67
2023-04-15T04:31:24.650Z,1.58
2023-04-15T04:33:53.192Z,1.20
2023-04-15T04:36:19.958Z,1.55
2023-04-15T04:38:49.964Z,1.40
2023-04-15T04:41:16.992Z,1.60
2023-04-15T04:43:43.792Z,1.50
2023-04-15T04:46:13.471Z,2.05
2023-04-15T04:48:40.314Z,1.60
2023-04-15T04:51:08.044Z,1.77
2023-04-15T04:53:41.792Z,1.75
2023-04-15T04:56:09.060Z,2.10
2023-04-15T04:58:36.376Z,1.50
2023-04-15T05:01:04.197Z,1.20
2023-04-15T05:04:15.923Z,1.35
2023-04-15T05:06:42.916Z,1.30
2023-04-15T05:09:11.351Z,1.38
2023-04-15T05:11:44.547Z,2.30
2023-04-15T05:15:15.989Z,2.90
2023-04-15T05:21:27.184Z,1.70
2023-04-15T05:23:54.270Z,1.80
2023-04-15T05:29:18.676Z,1.65
2023-04-15T05:31:54.602Z,2.00
2023-04-15T05:34:25.052Z,1.58
2023-04-15T05:37:01.227Z,1.30
2023-04-15T05:39:44.380Z,1.05
2023-04-15T05:42:11.738Z,1.30
2023-04-15T05:44:41.785Z,1.30
2023-04-15T05:47:37.310Z,1.20
2023-04-15T05:50:05.845Z,1.15
2023-04-15T05:52:59.428Z,1.33
2023-04-15T05:55:26.575Z,1.13
2023-04-15T06:00:58.349Z,1.00
2023-04-15T06:03:38.839Z,0.82
2023-04-15T06:09:11.986Z,1.08
2023-04-15T06:18:27.714Z,0.90
2023-04-15T06:21:21.504Z,0.90
2023-04-15T06:23:48.418Z,0.60
2023-04-15T06:26:36.659Z,0.50
2023-04-15T06:29:07.128Z,0.57
2023-04-15T06:32:13.976Z,0.52
2023-04-15T06:38:32.314Z,0.85
2023-04-15T06:41:03.440Z,0.60
2023-04-15T06:43:30.922Z,0.50
2023-04-15T06:46:05.863Z,0.40
2023-04-15T06:48:38.877Z,0.40
2023-04-15T06:51:06.223Z,0.40
2023-04-15T06:53:33.505Z,0.38
2023-04-15T06:56:04.009Z,0.73
2023-04-15T06:58:31.401Z,0.55
2023-04-15T07:00:58.819Z,0.60
2023-04-15T07:03:25.692Z,1.13
2023-04-15T07:05:52.825Z,0.40
2023-04-15T07:08:29.064Z,0.28
2023-04-15T07:10:56.126Z,0.30
2023-04-15T07:13:47.529Z,0.63
2023-04-15T07:16:30.563Z,0.40
2023-04-15T07:18:57.738Z,0.60
2023-04-15T07:21:25.756Z,0.50
2023-04-15T07:23:52.869Z,0.55
2023-04-15T07:26:22.110Z,0.50
2023-04-15T07:29:02.050Z,0.30
2023-04-15T07:37:37.594Z,0.43
2023-04-15T07:43:59.026Z,0.40
2023-04-15T07:46:29.104Z,0.30
2023-04-15T07:48:56.298Z,0.70
2023-04-15T07:51:23.424Z,0.57
2023-04-15T07:53:50.820Z,0.40
2023-04-15T07:56:23.795Z,0.43
2023-04-15T07:58:57.044Z,0.60
2023-04-15T08:05:03.016Z,0.30
2023-04-15T08:11:14.093Z,0.30
2023-04-15T08:13:41.232Z,0.30
2023-04-15T08:16:19.993Z,0.30
2023-04-15T08:18:51.576Z,0.50
2023-04-15T08:21:20.260Z,0.28
2023-04-15T08:23:50.357Z,0.60
2023-04-15T08:26:53.256Z,0.40
2023-04-15T08:32:39.699Z,0.32
2023-04-15T08:33:32.062Z,0.63
2023-04-15T08:38:18.362Z,0.35
2023-04-15T08:40:51.354Z,0.47
2023-04-15T08:43:33.707Z,0.82
2023-04-15T08:46:18.160Z,0.70
2023-04-15T08:49:20.874Z,0.50
2023-04-15T08:52:01.891Z,0.28
2023-04-15T08:54:29.675Z,0.40
2023-04-15T08:56:59.065Z,0.70
2023-04-15T08:59:26.369Z,0.52
2023-04-15T09:01:57.453Z,0.55
2023-04-15T09:04:24.464Z,0.82
2023-04-15T09:07:08.965Z,0.60
2023-04-15T09:09:37.897Z,0.40
2023-04-15T09:12:04.653Z,0.70
2023-04-15T09:14:32.877Z,0.87
2023-04-15T09:17:02.170Z,0.68
2023-04-15T09:22:22.802Z,0.50
2023-04-15T09:24:54.375Z,0.50
2023-04-15T09:27:21.315Z,0.50
2023-04-15T09:30:19.804Z,0.70
2023-04-15T09:33:08.353Z,2.22
2023-04-15T09:39:01.797Z,0.57
2023-04-15T09:41:28.819Z,0.88
2023-04-15T09:43:55.715Z,1.20
2023-04-15T09:46:48.393Z,0.60
2023-04-15T09:56:40.847Z,0.50
2023-04-15T09:59:42.943Z,0.15
2023-04-15T10:02:11.168Z,0.50
2023-04-15T10:08:32.936Z,0.40
2023-04-15T10:18:13.834Z,1.48
2023-04-15T10:28:12.160Z,0.20
2023-04-15T10:34:11.358Z,0.52
2023-04-15T10:36:38.348Z,0.40
2023-04-15T10:40:02.362Z,0.38
2023-04-15T10:42:35.556Z,0.35
2023-04-15T10:45:59.354Z,0.50
2023-04-15T10:48:26.396Z,0.40
2023-04-15T10:50:57.489Z,0.40
2023-04-15T10:57:40.030Z,0.20
2023-04-15T11:01:15.092Z,0.55
2023-04-15T11:05:18.580Z,0.38
2023-04-15T11:07:13.533Z,0.68
2023-04-15T11:10:28.236Z,0.38
2023-04-15T11:13:01.067Z,0.75
2023-04-15T11:15:34.732Z,0.80
2023-04-15T11:18:39.094Z,0.90
2023-04-15T11:21:08.004Z,0.77
2023-04-15T11:23:44.493Z,2.45
2023-04-15T11:26:26.245Z,0.97
2023-04-15T11:28:53.836Z,0.60
2023-04-15T11:34:11.126Z,0.50
2023-04-15T11:36:38.085Z,0.70
2023-04-15T11:39:14.141Z,0.95
2023-04-15T11:41:48.361Z,0.50
2023-04-15T11:44:21.655Z,0.45
2023-04-15T11:46:48.440Z,0.63
2023-04-15T11:49:29.461Z,0.40
2023-04-15T11:51:56.324Z,1.55
2023-04-15T11:54:23.283Z,0.70
2023-04-15T11:56:54.316Z,1.10
2023-04-15T11:59:21.512Z,0.93
2023-04-15T12:01:48.539Z,1.02
2023-04-15T12:04:25.883Z,1.17
2023-04-15T12:06:53.468Z,1.00
2023-04-15T12:09:21.397Z,1.13
2023-04-15T12:11:55.151Z,1.10
2023-04-15T12:14:32.858Z,1.08
2023-04-15T12:17:06.062Z,1.10
2023-04-15T12:19:45.791Z,1.10
2023-04-15T12:22:16.167Z,1.35
2023-04-15T12:24:48.867Z,0.88
2023-04-15T12:27:17.735Z,1.23
2023-04-15T12:30:03.790Z,1.25
2023-04-15T12:32:42.122Z,1.10
2023-04-15T12:36:02.809Z,1.10
2023-04-15T12:38:42.867Z,0.80
2023-04-15T12:41:46.907Z,0.70
2023-04-15T12:44:15.408Z,1.42
2023-04-15T12:46:56.187Z,1.70
2023-04-15T12:49:48.784Z,1.65
2023-04-15T12:56:04.519Z,1.00
2023-04-15T12:58:32.856Z,0.85
2023-04-15T13:01:06.912Z,1.08
2023-04-15T13:03:37.335Z,0.73
2023-04-15T13:06:05.260Z,0.90
2023-04-15T13:08:55.129Z,0.90
2023-04-15T13:11:25.563Z,1.02
2023-04-15T13:13:57.378Z,1.02
2023-04-15T13:16:25.455Z,0.90
2023-04-15T13:18:56.015Z,0.70
2023-04-15T13:21:29.713Z,0.65
2023-04-15T13:24:18.757Z,0.75
2023-04-15T13:26:50.813Z,1.08
2023-04-15T13:29:33.874Z,0.85
2023-04-15T13:35:08.094Z,1.00
2023-04-15T13:37:34.828Z,0.90
2023-04-15T13:40:11.820Z,0.70
2023-04-15T13:42:38.599Z,0.80
2023-04-15T13:45:07.036Z,1.20
2023-04-15T13:47:33.796Z,2.60
2023-04-15T13:50:03.962Z,0.60
2023-04-15T13:52:30.950Z,0.77
2023-04-15T13:55:18.575Z,0.95
2023-04-15T13:58:39.634Z,0.65
2023-04-15T14:01:34.738Z,1.05
2023-04-15T14:04:08.058Z,0.70
2023-04-15T14:06:35.485Z,0.73
2023-04-15T14:09:02.461Z,0.95
2023-04-15T14:11:33.394Z,1.00
2023-04-15T14:14:03.665Z,0.88
2023-04-15T14:16:32.394Z,0.50
2023-04-15T14:19:03.060Z,0.73
2023-04-15T14:21:34.990Z,0.60
2023-04-15T14:24:02.236Z,2.03
2023-04-15T14:26:29.800Z,1.60
2023-04-15T14:28:57.060Z,1.08
2023-04-15T14:31:33.351Z,1.00
2023-04-15T14:34:00.164Z,0.82
2023-04-15T14:36:29.474Z,0.70
2023-04-15T14:39:00.007Z,1.00
2023-04-15T14:41:27.009Z,0.70
2023-04-15T14:44:08.109Z,0.85
2023-04-15T14:46:55.005Z,0.88
2023-04-15T14:49:21.905Z,0.90
2023-04-15T14:51:48.892Z,0.60
2023-04-15T14:54:16.194Z,0.65
2023-04-15T14:56:42.936Z,0.65
2023-04-15T15:00:33.472Z,1.30
2023-04-15T15:02:52.906Z,0.90
2023-04-15T15:05:20.045Z,0.55
2023-04-15T15:15:28.446Z,0.60
2023-04-15T15:17:17.346Z,0.88
2023-04-15T15:19:47.184Z,0.90
2023-04-15T15:22:14.298Z,0.73
2023-04-15T15:24:41.942Z,1.00
2023-04-15T15:27:08.837Z,0.75
2023-04-15T15:29:39.058Z,0.95
2023-04-15T15:32:06.137Z,0.80
2023-04-15T15:34:40.393Z,1.00
2023-04-15T15:37:07.231Z,1.00
2023-04-15T15:39:35.638Z,1.17
2023-04-15T15:42:02.512Z,0.90
2023-04-15T15:44:31.214Z,0.80
2023-04-15T15:47:03.250Z,1.35
2023-04-15T15:49:33.573Z,1.52
2023-04-15T15:52:00.367Z,1.10
2023-04-15T15:54:29.985Z,1.40
2023-04-15T15:56:59.842Z,1.25
2023-04-15T15:59:26.719Z,1.17
2023-04-15T16:01:53.960Z,1.25
2023-04-15T16:04:24.241Z,1.48
2023-04-15T16:06:51.180Z,1.27
2023-04-15T16:09:19.036Z,1.20
2023-04-15T16:14:39.615Z,1.88
2023-04-15T16:17:07.657Z,1.65
2023-04-15T16:19:35.186Z,2.35
2023-04-15T16:28:37.718Z,0.80
2023-04-15T16:31:04.982Z,0.68
2023-04-15T16:36:49.393Z,0.73
2023-04-15T16:39:25.205Z,0.90
2023-04-15T16:41:52.345Z,1.05
2023-04-15T16:47:32.906Z,2.00
2023-04-15T16:52:52.873Z,1.50
2023-04-15T16:55:28.417Z,1.60
2023-04-15T16:58:16.665Z,1.95
2023-04-15T17:00:52.521Z,3.03
2023-04-15T17:03:25.956Z,4.63
2023-04-15T17:09:44.948Z,3.38
2023-04-15T17:18:12.356Z,2.40
2023-04-15T17:20:42.879Z,2.83
2023-04-15T17:23:57.674Z,1.85
2023-04-15T17:26:15.150Z,2.70
2023-04-15T17:29:52.300Z,2.30
2023-04-15T17:32:47.402Z,2.20
2023-04-15T17:35:26.369Z,1.70
2023-04-15T17:42:43.874Z,1.75
2023-04-15T17:45:56.207Z,2.22
2023-04-15T17:52:38.738Z,1.65
2023-04-15T18:06:33.474Z,1.25
2023-04-15T18:10:13.469Z,1.23
2023-04-15T18:15:58.746Z,1.45
2023-04-15T18:18:41.031Z,1.50
2023-04-15T18:21:13.619Z,1.50
2023-04-15T18:24:03.211Z,1.45
2023-04-15T18:36:33.214Z,1.20
2023-04-15T18:43:27.301Z,2.63
2023-04-15T18:46:55.797Z,2.22
2023-04-15T18:57:03.461Z,3.70
2023-04-15T19:03:14.171Z,2.40
2023-04-15T19:06:36.848Z,2.05
2023-04-15T19:12:16.745Z,2.10
2023-04-15T19:18:22.446Z,1.98
2023-04-15T19:21:16.200Z,2.50
2023-04-15T19:23:53.187Z,1.90
2023-04-15T19:26:33.502Z,1.65
2023-04-15T20:03:33.992Z,1.63
2023-04-15T20:11:18.377Z,1.85
2023-04-15T20:22:09.042Z,1.83
2023-04-15T20:24:52.141Z,1.98
2023-04-15T20:31:39.281Z,1.70
2023-04-15T20:41:38.205Z,2.20
2023-04-15T20:49:34.466Z,2.08
2023-04-15T20:54:27.585Z,2.00
2023-04-15T21:12:33.144Z,1.40
2023-04-15T21:30:22.157Z,1.52
2023-04-15T23:00:53.419Z,1.38
2023-04-15T23:15:46.644Z,1.70
2023-04-15T23:39:07.293Z,1.52
2023-04-15T23:45:52.045Z,1.73
